createdAt,value
2023-09-05T00:01:50.372Z,21.00
2023-09-05T00:04:57.287Z,20.83
2023-09-05T00:08:01.247Z,20.81
2023-09-05T00:11:05.618Z,20.78
2023-09-05T00:14:12.236Z,20.99
2023-09-05T00:17:15.996Z,21.09
2023-09-05T00:20:21.153Z,20.99
2023-09-05T00:23:28.406Z,20.97
2023-09-05T00:26:32.721Z,20.84
2023-09-05T00:29:39.159Z,20.78
2023-09-05T00:32:43.549Z,20.86
2023-09-05T00:35:50.260Z,20.70
2023-09-05T00:38:54.191Z,20.83
2023-09-05T00:41:58.443Z,20.87
2023-09-05T00:45:04.481Z,20.90
2023-09-05T00:48:09.939Z,20.94
2023-09-05T00:51:14.845Z,20.92
2023-09-05T00:54:19.304Z,20.93
2023-09-05T00:57:24.111Z,20.91
2023-09-05T01:00:29.500Z,20.78
2023-09-05T01:03:33.690Z,20.87
2023-09-05T01:06:48.373Z,20.56
2023-09-05T01:09:58.353Z,20.76
2023-09-05T01:13:02.314Z,20.66
2023-09-05T01:16:11.181Z,20.59
2023-09-05T01:19:18.606Z,20.53
2023-09-05T01:22:36.255Z,20.60
2023-09-05T01:25:41.808Z,20.77
2023-09-05T01:28:48.403Z,20.63
2023-09-05T01:31:52.406Z,20.68
2023-09-05T01:34:56.095Z,20.87
2023-09-05T01:38:01.674Z,20.80
2023-09-05T01:41:07.194Z,20.86
2023-09-05T01:44:11.142Z,20.86
2023-09-05T01:47:15.241Z,20.91
2023-09-05T01:50:21.008Z,20.87
2023-09-05T01:53:25.814Z,20.86
2023-09-05T01:56:32.116Z,20.76
2023-09-05T01:59:36.145Z,20.84
2023-09-05T02:02:39.981Z,20.62
2023-09-05T02:05:43.927Z,20.57
2023-09-05T02:08:47.893Z,20.54
2023-09-05T02:11:53.274Z,20.74
2023-09-05T02:14:57.213Z,20.83
2023-09-05T02:18:03.718Z,20.83
2023-09-05T02:21:07.769Z,20.63
2023-09-05T02:24:11.732Z,20.81
2023-09-05T02:27:17.061Z,20.82
2023-09-05T02:30:21.519Z,20.73
2023-09-05T02:33:26.411Z,20.62
2023-09-05T02:36:32.370Z,20.55
2023-09-05T02:39:36.332Z,20.78
2023-09-05T02:42:41.667Z,20.48
2023-09-05T02:45:53.941Z,20.45
2023-09-05T02:48:58.498Z,20.44
2023-09-05T02:52:02.597Z,20.42
2023-09-05T02:55:07.368Z,20.54
2023-09-05T02:58:12.778Z,20.75
2023-09-05T03:01:17.685Z,20.78
2023-09-05T03:04:21.597Z,20.82
2023-09-05T03:07:25.641Z,20.71
2023-09-05T03:10:29.570Z,20.69
2023-09-05T03:13:34.950Z,20.75
2023-09-05T03:16:39.079Z,20.64
2023-09-05T03:19:43.160Z,20.53
2023-09-05T03:22:47.238Z,20.74
2023-09-05T03:25:52.441Z,20.79
2023-09-05T03:29:01.240Z,20.65
2023-09-05T03:32:05.772Z,20.77
2023-09-05T03:35:11.489Z,20.57
2023-09-05T03:38:15.470Z,20.59
2023-09-05T03:41:19.410Z,20.66
2023-09-05T03:44:24.792Z,20.70
2023-09-05T03:47:28.864Z,20.63
2023-09-05T03:50:32.928Z,20.71
2023-09-05T03:53:38.451Z,20.70
2023-09-05T03:56:44.384Z,20.78
2023-09-05T03:59:51.470Z,20.76
2023-09-05T04:02:55.408Z,20.70
2023-09-05T04:06:03.010Z,20.65
2023-09-05T04:09:07.111Z,20.59
2023-09-05T04:12:11.331Z,20.83
2023-09-05T04:15:21.326Z,20.78
2023-09-05T04:18:25.422Z,20.88
2023-09-05T04:21:29.352Z,21.02
2023-09-05T04:24:33.281Z,21.02
2023-09-05T04:27:37.798Z,21.06
2023-09-05T04:30:43.228Z,20.85
2023-09-05T04:33:47.148Z,20.92
2023-09-05T04:36:51.052Z,20.81
2023-09-05T04:39:55.907Z,20.73
2023-09-05T04:42:59.686Z,20.65
2023-09-05T04:46:07.517Z,20.84
2023-09-05T04:49:11.953Z,20.83
2023-09-05T04:52:16.323Z,20.90
2023-09-05T04:55:20.183Z,20.75
2023-09-05T04:58:24.365Z,20.70
2023-09-05T05:01:29.949Z,20.87
2023-09-05T05:04:33.933Z,20.90
2023-09-05T05:07:38.143Z,20.81
2023-09-05T05:10:42.244Z,20.58
2023-09-05T05:13:46.085Z,20.62
2023-09-05T05:16:51.569Z,20.49
2023-09-05T05:19:55.530Z,20.65
2023-09-05T05:22:59.407Z,20.48
2023-09-05T05:26:03.364Z,20.48
2023-09-05T05:29:07.435Z,20.53
2023-09-05T05:32:17.752Z,20.61
2023-09-05T05:35:21.828Z,20.86
2023-09-05T05:38:26.183Z,20.87
2023-09-05T05:41:30.639Z,21.12
2023-09-05T05:44:35.019Z,20.98
2023-09-05T05:47:42.870Z,20.75
2023-09-05T05:50:47.130Z,20.75
2023-09-05T05:53:56.458Z,20.68
2023-09-05T05:57:01.205Z,20.76
2023-09-05T06:00:06.199Z,20.87
2023-09-05T06:03:17.808Z,20.82
2023-09-05T06:06:21.987Z,20.99
2023-09-05T06:09:25.892Z,21.02
2023-09-05T06:12:29.899Z,21.04
2023-09-05T06:15:36.439Z,21.09
2023-09-05T06:18:43.351Z,21.21
2023-09-05T06:21:48.066Z,21.28
2023-09-05T06:24:52.402Z,21.27
2023-09-05T06:27:56.432Z,21.23
2023-09-05T06:31:00.973Z,21.25
2023-09-05T06:34:06.529Z,21.29
2023-09-05T06:37:11.522Z,21.32
2023-09-05T06:40:16.876Z,21.28
2023-09-05T06:43:21.212Z,21.48
2023-09-05T06:46:25.195Z,21.26
2023-09-05T06:49:30.639Z,21.32
2023-09-05T06:52:34.517Z,21.11
2023-09-05T06:55:38.683Z,21.13
2023-09-05T06:58:42.706Z,20.96
2023-09-05T07:01:46.791Z,21.00
2023-09-05T07:04:52.299Z,21.17
2023-09-05T07:07:56.269Z,21.06
2023-09-05T07:11:00.383Z,20.92
2023-09-05T07:14:05.381Z,20.79
2023-09-05T07:17:09.892Z,20.75
2023-09-05T07:20:15.528Z,20.51
2023-09-05T07:23:20.469Z,20.63
2023-09-05T07:26:24.752Z,20.64
2023-09-05T07:29:28.860Z,20.60
2023-09-05T07:32:32.886Z,20.50
2023-09-05T07:35:41.217Z,20.74
2023-09-05T07:38:48.603Z,20.65
2023-09-05T07:41:52.866Z,20.58
2023-09-05T07:44:56.840Z,20.64
2023-09-05T07:48:00.867Z,20.78
2023-09-05T07:51:08.793Z,20.86
2023-09-05T07:54:16.207Z,20.76
2023-09-05T07:57:20.151Z,20.78
2023-09-05T08:00:28.367Z,20.88
2023-09-05T08:03:32.146Z,20.89
2023-09-05T08:06:38.300Z,20.95
2023-09-05T08:09:43.053Z,21.15
2023-09-05T08:12:47.071Z,20.98
2023-09-05T08:15:52.808Z,20.85
2023-09-05T08:18:56.711Z,21.17
2023-09-05T08:22:02.188Z,21.45
2023-09-05T08:25:08.599Z,21.64
2023-09-05T08:28:14.117Z,21.86
2023-09-05T08:31:19.052Z,22.40
2023-09-05T08:34:23.158Z,23.14
2023-09-05T08:37:29.041Z,23.35
2023-09-05T08:40:37.643Z,23.71
2023-09-05T08:43:42.073Z,24.56
2023-09-05T08:46:48.218Z,25.05
2023-09-05T08:49:52.723Z,25.20
2023-09-05T08:52:59.975Z,25.53
2023-09-05T08:56:07.952Z,25.75
2023-09-05T08:59:11.960Z,26.32
2023-09-05T09:02:17.616Z,26.24
2023-09-05T09:05:22.465Z,26.06
2023-09-05T09:08:28.179Z,26.30
2023-09-05T09:11:34.056Z,26.49
2023-09-05T09:14:38.585Z,26.12
2023-09-05T09:17:43.778Z,25.75
2023-09-05T09:20:48.799Z,25.78
2023-09-05T09:23:54.019Z,25.70
2023-09-05T09:26:57.975Z,25.48
2023-09-05T09:30:02.084Z,25.78
2023-09-05T09:33:07.046Z,25.69
2023-09-05T09:36:13.220Z,25.45
2023-09-05T09:39:18.802Z,25.33
2023-09-05T09:42:25.611Z,25.54
2023-09-05T09:45:29.631Z,25.47
2023-09-05T09:48:36.381Z,25.71
2023-09-05T09:51:45.662Z,25.67
2023-09-05T09:54:52.593Z,25.73
2023-09-05T09:58:03.461Z,25.45
2023-09-05T10:01:09.453Z,25.86
2023-09-05T10:04:14.354Z,25.91
2023-09-05T10:07:21.782Z,25.87
2023-09-05T10:10:30.328Z,25.81
2023-09-05T10:13:39.351Z,25.98
2023-09-05T10:16:47.264Z,26.36
2023-09-05T10:19:53.184Z,26.72
2023-09-05T10:22:57.154Z,27.07
2023-09-05T10:26:04.645Z,26.99
2023-09-05T10:29:36.278Z,26.62
2023-09-05T10:32:45.629Z,26.43
2023-09-05T10:35:49.653Z,26.37
2023-09-05T10:38:58.897Z,26.25
2023-09-05T10:42:04.268Z,25.95
2023-09-05T10:45:20.632Z,26.20
2023-09-05T10:48:35.084Z,26.12
2023-09-05T10:51:39.047Z,26.18
2023-09-05T10:54:43.237Z,26.00
2023-09-05T10:57:51.675Z,25.96
2023-09-05T11:00:56.318Z,25.67
2023-09-05T11:04:05.454Z,25.60
2023-09-05T11:07:11.660Z,25.55
2023-09-05T11:10:28.076Z,25.30
2023-09-05T11:13:33.570Z,25.25
2023-09-05T11:16:48.512Z,25.50
2023-09-05T11:19:54.925Z,25.20
2023-09-05T11:22:59.325Z,24.86
2023-09-05T11:26:05.543Z,24.84
2023-09-05T11:29:10.915Z,24.72
2023-09-05T11:32:16.500Z,24.49
2023-09-05T11:35:21.329Z,24.64
2023-09-05T11:38:31.302Z,24.72
2023-09-05T11:41:42.335Z,24.90
2023-09-05T11:44:47.828Z,24.83
2023-09-05T11:47:53.332Z,24.55
2023-09-05T11:50:57.916Z,24.80
2023-09-05T11:54:02.347Z,24.85
2023-09-05T11:57:08.974Z,24.60
2023-09-05T12:00:17.125Z,24.79
2023-09-05T12:03:21.414Z,24.79
2023-09-05T12:06:25.742Z,24.39
2023-09-05T12:09:32.250Z,24.37
2023-09-05T12:12:36.164Z,24.17
2023-09-05T12:15:42.001Z,24.48
2023-09-05T12:18:47.300Z,24.43
2023-09-05T12:21:51.819Z,24.35
2023-09-05T12:25:15.270Z,24.30
2023-09-05T12:28:23.509Z,24.36
2023-09-05T12:31:29.767Z,24.36
2023-09-05T12:34:33.821Z,24.55
2023-09-05T12:37:37.803Z,24.39
2023-09-05T12:40:43.913Z,24.35
2023-09-05T12:43:47.863Z,24.41
2023-09-05T12:46:55.865Z,24.39
2023-09-05T12:50:11.241Z,24.42
2023-09-05T12:53:15.891Z,24.50
2023-09-05T12:56:21.125Z,24.65
2023-09-05T12:59:26.280Z,24.72
2023-09-05T13:02:31.810Z,24.80
2023-09-05T13:05:35.966Z,24.90
2023-09-05T13:08:41.138Z,24.59
2023-09-05T13:11:45.008Z,24.74
2023-09-05T13:14:48.960Z,25.20
2023-09-05T13:17:54.847Z,24.94
2023-09-05T13:20:58.661Z,25.14
2023-09-05T13:24:02.608Z,25.41
2023-09-05T13:27:07.089Z,25.12
2023-09-05T13:30:12.501Z,24.60
2023-09-05T13:33:17.980Z,24.39
2023-09-05T13:36:22.012Z,24.01
2023-09-05T13:39:28.489Z,24.13
2023-09-05T13:42:32.704Z,24.30
2023-09-05T13:45:36.799Z,24.18
2023-09-05T13:48:42.159Z,24.41
2023-09-05T13:51:46.295Z,24.53
2023-09-05T13:54:50.384Z,24.25
2023-09-05T13:57:54.582Z,24.29
2023-09-05T14:00:59.269Z,24.43
2023-09-05T14:04:04.668Z,24.57
2023-09-05T14:07:08.643Z,24.22
2023-09-05T14:10:15.886Z,24.48
2023-09-05T14:13:19.991Z,24.44
2023-09-05T14:16:23.921Z,24.51
2023-09-05T14:19:29.494Z,24.70
2023-09-05T14:22:33.502Z,24.79
2023-09-05T14:25:37.970Z,24.53
2023-09-05T14:28:42.289Z,24.38
2023-09-05T14:31:49.127Z,24.25
2023-09-05T14:34:56.362Z,24.09
2023-09-05T14:38:00.263Z,23.93
2023-09-05T14:41:04.285Z,23.85
2023-09-05T14:44:08.393Z,23.83
2023-09-05T14:47:13.797Z,23.98
2023-09-05T14:50:20.037Z,23.63
2023-09-05T14:53:24.003Z,23.74
2023-09-05T14:56:27.879Z,23.68
2023-09-05T14:59:31.920Z,23.51
2023-09-05T15:02:35.864Z,23.63
2023-09-05T15:05:42.298Z,23.48
2023-09-05T15:08:46.725Z,23.63
2023-09-05T15:11:50.692Z,23.65
2023-09-05T15:14:54.591Z,23.36
2023-09-05T15:17:58.575Z,23.40
2023-09-05T15:21:04.122Z,23.48
2023-09-05T15:24:08.801Z,23.72
2023-09-05T15:27:14.473Z,23.52
2023-09-05T15:30:20.152Z,23.42
2023-09-05T15:33:24.330Z,23.34
2023-09-05T15:36:32.845Z,23.55
2023-09-05T15:39:36.914Z,23.49
2023-09-05T15:42:42.186Z,23.45
2023-09-05T15:45:49.988Z,23.32
2023-09-05T15:48:54.102Z,23.39
2023-09-05T15:52:00.374Z,23.42
2023-09-05T15:55:04.468Z,23.37
2023-09-05T15:58:10.092Z,23.40
2023-09-05T16:01:18.667Z,23.40
2023-09-05T16:04:22.994Z,23.41
2023-09-05T16:07:28.787Z,23.42
2023-09-05T16:10:32.796Z,23.32
2023-09-05T16:13:39.778Z,23.27
2023-09-05T16:16:43.712Z,23.22
2023-09-05T16:19:53.060Z,23.28
2023-09-05T16:22:58.517Z,23.42
2023-09-05T16:26:02.461Z,23.40
2023-09-05T16:29:06.328Z,23.52
2023-09-05T16:32:11.830Z,23.61
2023-09-05T16:35:17.089Z,23.65
2023-09-05T16:38:23.068Z,23.77
2023-09-05T16:41:31.230Z,23.73
2023-09-05T16:44:35.203Z,23.61
2023-09-05T16:47:39.051Z,23.54
2023-09-05T16:50:44.378Z,23.46
2023-09-05T16:53:49.896Z,23.45
2023-09-05T16:56:53.992Z,23.41
2023-09-05T16:59:58.014Z,23.39
2023-09-05T17:03:02.138Z,23.31
2023-09-05T17:06:06.404Z,23.19
2023-09-05T17:09:12.071Z,23.14
2023-09-05T17:12:16.186Z,23.01
2023-09-05T17:15:20.282Z,22.78
2023-09-05T17:18:24.452Z,22.71
2023-09-05T17:21:28.576Z,22.87
2023-09-05T17:24:34.302Z,22.62
2023-09-05T17:27:38.236Z,22.79
2023-09-05T17:30:42.927Z,22.84
2023-09-05T17:33:47.009Z,22.86
2023-09-05T17:36:51.032Z,22.84
2023-09-05T17:39:56.522Z,22.97
2023-09-05T17:43:00.490Z,23.03
2023-09-05T17:46:07.268Z,23.07
2023-09-05T17:49:11.249Z,23.01
2023-09-05T17:52:15.295Z,22.94
2023-09-05T17:55:20.905Z,22.86
2023-09-05T17:58:24.806Z,22.88
2023-09-05T18:01:28.885Z,22.77
2023-09-05T18:04:33.100Z,22.91
2023-09-05T18:07:42.787Z,22.35
2023-09-05T18:10:48.530Z,22.63
2023-09-05T18:13:52.497Z,22.66
2023-09-05T18:16:56.352Z,22.43
2023-09-05T18:20:00.406Z,22.58
2023-09-05T18:23:04.509Z,22.69
2023-09-05T18:26:11.615Z,22.59
2023-09-05T18:29:16.837Z,22.50
2023-09-05T18:32:21.455Z,22.47
2023-09-05T18:35:25.820Z,22.33
2023-09-05T18:38:31.286Z,22.21
2023-09-05T18:41:39.937Z,22.10
2023-09-05T18:44:45.136Z,22.13
2023-09-05T18:47:49.077Z,22.08
2023-09-05T18:50:53.226Z,21.99
2023-09-05T18:53:57.240Z,21.79
2023-09-05T18:57:02.844Z,21.86
2023-09-05T19:00:07.898Z,21.85
2023-09-05T19:03:11.959Z,21.69
2023-09-05T19:06:16.096Z,21.67
2023-09-05T19:09:22.087Z,21.45
2023-09-05T19:12:28.987Z,21.52
2023-09-05T19:15:33.001Z,21.37
2023-09-05T19:18:37.851Z,21.50
2023-09-05T19:21:44.170Z,21.47
2023-09-05T19:24:48.350Z,21.59
2023-09-05T19:27:53.703Z,21.36
2023-09-05T19:30:57.682Z,21.30
2023-09-05T19:34:01.873Z,21.10
2023-09-05T19:37:06.422Z,20.98
2023-09-05T19:40:10.749Z,21.12
2023-09-05T19:43:59.370Z,21.12
2023-09-05T19:47:04.938Z,21.29
2023-09-05T19:50:09.832Z,21.29
2023-09-05T19:53:13.921Z,21.39
2023-09-05T19:56:17.793Z,21.58
2023-09-05T19:59:21.852Z,21.48
2023-09-05T20:02:27.409Z,21.44
2023-09-05T20:05:31.563Z,21.47
2023-09-05T20:08:35.561Z,21.44
2023-09-05T20:11:39.481Z,21.49
2023-09-05T20:14:43.553Z,21.45
2023-09-05T20:17:48.900Z,21.49
2023-09-05T20:20:53.868Z,21.48
2023-09-05T20:23:58.067Z,21.35
2023-09-05T20:27:02.143Z,21.40
2023-09-05T20:30:06.927Z,21.12
2023-09-05T20:33:12.497Z,21.35
2023-09-05T20:36:16.512Z,21.43
2023-09-05T20:39:20.340Z,21.61
2023-09-05T20:42:24.437Z,21.62
2023-09-05T20:45:29.119Z,21.46
2023-09-05T20:48:35.109Z,21.51
2023-09-05T20:51:40.365Z,21.58
2023-09-05T20:54:44.308Z,21.44
2023-09-05T20:57:48.248Z,21.48
2023-09-05T21:00:53.224Z,21.41
2023-09-05T21:03:58.845Z,21.46
2023-09-05T21:07:03.025Z,21.50
2023-09-05T21:10:07.647Z,21.46
2023-09-05T21:13:12.805Z,21.48
2023-09-05T21:16:16.973Z,21.36
2023-09-05T21:19:22.450Z,21.41
2023-09-05T21:22:27.181Z,21.43
2023-09-05T21:25:31.142Z,21.44
2023-09-05T21:28:35.246Z,21.41
2023-09-05T21:31:39.374Z,21.22
2023-09-05T21:34:44.773Z,21.18
2023-09-05T21:37:49.383Z,21.17
2023-09-05T21:40:53.890Z,21.34
2023-09-05T21:43:57.940Z,21.27
2023-09-05T21:47:01.791Z,21.26
2023-09-05T21:50:09.990Z,21.19
2023-09-05T21:53:14.114Z,21.20
2023-09-05T21:56:18.045Z,21.17
2023-09-05T21:59:22.352Z,21.11
2023-09-05T22:02:27.106Z,21.23
2023-09-05T22:05:33.542Z,21.19
2023-09-05T22:08:37.580Z,21.18
2023-09-05T22:11:41.573Z,21.08
2023-09-05T22:14:45.455Z,20.99
2023-09-05T22:17:49.634Z,21.08
2023-09-05T22:20:59.034Z,21.04
2023-09-05T22:24:03.318Z,20.95
2023-09-05T22:27:07.750Z,21.05
2023-09-05T22:30:13.996Z,21.17
2023-09-05T22:33:17.906Z,21.23
2023-09-05T22:36:51.573Z,21.05
2023-09-05T22:39:58.862Z,21.06
2023-09-05T22:43:06.904Z,20.99
2023-09-05T22:46:10.822Z,20.98
2023-09-05T22:49:14.853Z,20.92
2023-09-05T22:52:20.181Z,20.73
2023-09-05T22:55:24.763Z,20.91
2023-09-05T22:58:28.953Z,20.86
2023-09-05T23:01:33.227Z,20.88
2023-09-05T23:04:37.331Z,20.78
2023-09-05T23:07:43.132Z,20.82
2023-09-05T23:10:47.147Z,20.75
2023-09-05T23:13:51.018Z,20.78
2023-09-05T23:16:55.099Z,20.79
2023-09-05T23:20:00.371Z,20.81
2023-09-05T23:23:06.633Z,20.74
2023-09-05T23:26:11.435Z,20.61
2023-09-05T23:29:16.488Z,20.66
2023-09-05T23:32:20.499Z,20.56
2023-09-05T23:35:24.360Z,20.93
2023-09-05T23:38:31.325Z,20.92
2023-09-05T23:41:35.194Z,20.78
2023-09-05T23:44:39.117Z,20.74
2023-09-05T23:47:43.979Z,20.95
2023-09-05T23:50:47.985Z,20.94
2023-09-05T23:53:53.258Z,21.04
2023-09-05T23:56:56.993Z,20.91
